Time;durP1;ratioP1;P1;durP2;ratioP2;P2;SDS_P1;SDS_P2;PMS_P1;PMS_P2;Temp;Humidity;BMP_temperature;BMP_pressure;BME280_temperature;BME280_humidity;BME280_pressure;Samples;Min_cycle;Max_cycle;Signal;HPM_P1;HPM_P2
2022/04/09 00:00:23;;;;;;;;;;;;;;;;;;5074052;28;19974;-72
2022/04/09 00:02:49;;;;;;;;;;;;;;;;;;5072280;28;19920;-73
2022/04/09 00:05:15;;;;;;;;;;;;;;;;;;5072326;28;20018;-72
2022/04/09 00:07:41;;;;;;;;;;;;;;;;;;5073552;28;20369;-72
2022/04/09 00:10:07;;;;;;;;;;;;;;;;;;5073868;28;20007;-73
2022/04/09 00:12:33;;;;;;;;;;;;;;;;;;5073627;28;19912;-72
2022/04/09 00:14:59;;;;;;;;;;;;;;;;;;5072417;28;19919;-72
2022/04/09 00:17:25;;;;;;;;;;;;;;;;;;5073623;28;19912;-73
2022/04/09 00:19:51;;;;;;;;;;;;;;;;;;5072070;28;20279;-72
2022/04/09 00:22:17;;;;;;;;;;;;;;;;;;5073528;28;19916;-73
2022/04/09 00:24:43;;;;;;;;;;;;;;;;;;5071871;28;20590;-72
2022/04/09 00:27:09;;;;;;;;;;;;;;;;;;5073489;28;19986;-73
2022/04/09 00:29:35;;;;;;;;;;;;;;;;;;5071925;28;19964;-73
2022/04/09 00:32:01;;;;;;;;;;;;;;;;;;5071911;28;19923;-72
2022/04/09 00:34:27;;;;;;;;;;;;;;;;;;5071686;28;19912;-73
2022/04/09 00:36:53;;;;;;;;;;;;;;;;;;5073181;28;19912;-72
2022/04/09 00:39:19;;;;;;;;;;;;;;;;;;5073122;28;19913;-72
2022/04/09 00:41:47;;;;;;;;;;;;;;;;;;5071687;28;19917;-72
2022/04/09 00:44:13;;;;;;;;;;;;;;;;;;5071801;28;20018;-72
2022/04/09 00:46:39;;;;;;;;;;;;;;;;;;5073122;28;19917;-72
2022/04/09 00:49:04;;;;;;;;;;;;;;;;;;5071839;28;19912;-72
2022/04/09 00:51:30;;;;;;;;;;;;;;;;;;5071497;28;20016;-72
2022/04/09 00:53:56;;;;;;;;;;;;;;;;;;5072869;28;19916;-72
2022/04/09 00:56:22;;;;;;;;;;;;;;;;;;5072743;28;19916;-73
2022/04/09 00:58:48;;;;;;;;;;;;;;;;;;5072693;28;19908;-72
2022/04/09 01:01:14;;;;;;;;;;;;;;;;;;5072471;28;19913;-72
2022/04/09 01:03:40;;;;;;;;;;;;;;;;;;5071099;28;20300;-73
2022/04/09 01:06:06;;;;;;;;;;;;;;;;;;5072377;28;19923;-72
2022/04/09 01:08:32;;;;;;;;;;;;;;;;;;5072481;28;20310;-72
2022/04/09 01:10:58;;;;;;;;;;;;;;;;;;5072185;28;19916;-72
2022/04/09 01:13:24;;;;;;;;;;;;;;;;;;5072508;28;19977;-71
2022/04/09 01:15:50;;;;;;;;;;;;;;;;;;5072772;28;20349;-73
2022/04/09 01:18:16;;;;;;;;;;;;;;;;;;5071122;28;19923;-74
2022/04/09 01:20:42;;;;;;;;;;;;;;;;;;5072055;28;19955;-73
2022/04/09 01:23:08;;;;;;;;;;;;;;;;;;5070907;28;19916;-73
2022/04/09 01:25:34;;;;;;;;;;;;;;;;;;5072429;28;19999;-73
2022/04/09 01:28:00;;;;;;;;;;;;;;;;;;5072036;28;19970;-73
2022/04/09 01:30:26;;;;;;;;;;;;;;;;;;5072214;28;20357;-72
2022/04/09 01:32:51;;;;;;;;;;;;;;;;;;5070700;28;19961;-73
2022/04/09 01:35:17;;;;;;;;;;;;;;;;;;5072197;28;20007;-73
2022/04/09 01:37:43;;;;;;;;;;;;;;;;;;5080432;28;20363;-73
2022/04/09 01:40:09;;;;;;;;;;;;;;;;;;5092371;28;19916;-74
2022/04/09 01:42:36;;;;;;;;;;;;;;;;;;5092004;28;20363;-73
2022/04/09 01:45:02;;;;;;;;;;;;;;;;;;5090664;28;19943;-74
2022/04/09 01:47:28;;;;;;;;;;;;;;;;;;5091413;28;20284;-72
2022/04/09 01:49:54;;;;;;;;;;;;;;;;;;5090707;28;19912;-72
2022/04/09 01:52:20;;;;;;;;;;;;;;;;;;5090487;28;19916;-73
2022/04/09 01:54:46;;;;;;;;;;;;;;;;;;5090845;28;19958;-73
2022/04/09 01:57:11;;;;;;;;;;;;;;;;;;5090544;28;20446;-72
2022/04/09 01:59:37;;;;;;;;;;;;;;;;;;5092117;28;19912;-74
2022/04/09 02:02:03;;;;;;;;;;;;;;;;;;5091858;28;19920;-72
2022/04/09 02:04:29;;;;;;;;;;;;;;;;;;5090361;28;19989;-72
2022/04/09 02:06:58;;;;;;;;;;;;;;;;;;5089887;28;20285;-72
2022/04/09 02:09:24;;;;;;;;;;;;;;;;;;5090660;28;19992;-75
2022/04/09 02:11:50;;;;;;;;;;;;;;;;;;5092104;28;20370;-74
2022/04/09 02:14:16;;;;;;;;;;;;;;;;;;5090670;28;19943;-73
2022/04/09 02:16:42;;;;;;;;;;;;;;;;;;5091584;28;20375;-72
2022/04/09 02:19:10;;;;;;;;;;;;;;;;;;5091729;28;19920;-72
2022/04/09 02:21:36;;;;;;;;;;;;;;;;;;5091405;28;19912;-72
2022/04/09 02:24:02;;;;;;;;;;;;;;;;;;5091513;28;19970;-71
2022/04/09 02:26:28;;;;;;;;;;;;;;;;;;5091252;28;19920;-73
2022/04/09 02:28:54;;;;;;;;;;;;;;;;;;5091522;28;19908;-72
2022/04/09 02:31:20;;;;;;;;;;;;;;;;;;5091376;28;19965;-73
2022/04/09 02:33:46;;;;;;;;;;;;;;;;;;5091460;28;20275;-72
2022/04/09 02:36:13;;;;;;;;;;;;;;;;;;5091210;28;19913;-72
2022/04/09 02:38:38;;;;;;;;;;;;;;;;;;5089834;28;20304;-72
2022/04/09 02:41:04;;;;;;;;;;;;;;;;;;5089906;28;19913;-73
2022/04/09 02:43:30;;;;;;;;;;;;;;;;;;5089866;28;19912;-72
2022/04/09 02:45:57;;;;;;;;;;;;;;;;;;5091271;28;19912;-74
2022/04/09 02:48:23;;;;;;;;;;;;;;;;;;5089901;28;19913;-72
2022/04/09 02:50:49;;;;;;;;;;;;;;;;;;5090083;28;19922;-73
2022/04/09 02:53:14;;;;;;;;;;;;;;;;;;5091243;28;19913;-74
2022/04/09 02:55:40;;;;;;;;;;;;;;;;;;5091626;28;20012;-72
2022/04/09 02:58:06;;;;;;;;;;;;;;;;;;5092410;28;19912;-72
2022/04/09 03:00:32;;;;;;;;;;;;;;;;;;5093869;28;19918;-72
2022/04/09 03:02:58;;;;;;;;;;;;;;;;;;5094763;28;19978;-72
2022/04/09 03:05:24;;;;;;;;;;;;;;;;;;5093800;28;20004;-72
2022/04/09 03:07:50;;;;;;;;;;;;;;;;;;5095019;28;19927;-73
2022/04/09 03:10:16;;;;;;;;;;;;;;;;;;5094036;28;19912;-72
2022/04/09 03:12:42;;;;;;;;;;;;;;;;;;5093612;28;20265;-73
2022/04/09 03:15:08;;;;;;;;;;;;;;;;;;5093666;28;19965;-72
2022/04/09 03:17:34;;;;;;;;;;;;;;;;;;5094970;28;19934;-72
2022/04/09 03:19:59;;;;;;;;;;;;;;;;;;5095035;28;20481;-72
2022/04/09 03:22:27;;;;;;;;;;;;;;;;;;5094988;28;19916;-73
2022/04/09 03:24:53;;;;;;;;;;;;;;;;;;5093266;28;19916;-72
2022/04/09 03:27:19;;;;;;;;;;;;;;;;;;5094728;28;20229;-72
2022/04/09 03:29:45;;;;;;;;;;;;;;;;;;5094719;28;19982;-72
2022/04/09 03:32:11;;;;;;;;;;;;;;;;;;5094382;28;19912;-73
2022/04/09 03:34:37;;;;;;;;;;;;;;;;;;5094529;28;20041;-73
2022/04/09 03:37:03;;;;;;;;;;;;;;;;;;5094447;28;20360;-73
2022/04/09 03:39:29;;;;;;;;;;;;;;;;;;5094554;28;19926;-73
2022/04/09 03:41:55;;;;;;;;;;;;;;;;;;5092935;28;20296;-72
2022/04/09 03:44:21;;;;;;;;;;;;;;;;;;5094163;28;19924;-73
2022/04/09 03:46:47;;;;;;;;;;;;;;;;;;5094208;28;19912;-73
2022/04/09 03:49:12;;;;;;;;;;;;;;;;;;5092822;28;19916;-72
2022/04/09 03:51:38;;;;;;;;;;;;;;;;;;5094184;28;19913;-72
2022/04/09 03:54:04;;;;;;;;;;;;;;;;;;5092707;28;19912;-72
2022/04/09 03:56:30;;;;;;;;;;;;;;;;;;5094232;28;20019;-73
2022/04/09 03:58:56;;;;;;;;;;;;;;;;;;5093985;28;19915;-72
2022/04/09 04:01:24;;;;;;;;;;;;;;;;;;5093870;28;20436;-72
2022/04/09 04:03:50;;;;;;;;;;;;;;;;;;5093754;28;19935;-71
2022/04/09 04:06:16;;;;;;;;;;;;;;;;;;5092584;28;19916;-72
2022/04/09 04:08:42;;;;;;;;;;;;;;;;;;5093164;28;19919;-72
2022/04/09 04:11:08;;;;;;;;;;;;;;;;;;5093038;28;20064;-73
2022/04/09 04:13:38;;;;;;;;;;;;;;;;;;5093833;28;19912;-72
2022/04/09 04:16:04;;;;;;;;;;;;;;;;;;5093768;28;20403;-71
2022/04/09 04:18:30;;;;;;;;;;;;;;;;;;5092286;28;19947;-72
2022/04/09 04:20:55;;;;;;;;;;;;;;;;;;5094102;28;20352;-72
2022/04/09 04:23:23;;;;;;;;;;;;;;;;;;5093670;28;20351;-72
2022/04/09 04:25:48;;;;;;;;;;;;;;;;;;5094019;28;20508;-72
2022/04/09 04:28:14;;;;;;;;;;;;;;;;;;5093434;28;19927;-73
2022/04/09 04:30:40;;;;;;;;;;;;;;;;;;5092277;28;19920;-72
2022/04/09 04:33:06;;;;;;;;;;;;;;;;;;5093393;28;19916;-73
2022/04/09 04:35:32;;;;;;;;;;;;;;;;;;5092028;28;19983;-75
2022/04/09 04:37:58;;;;;;;;;;;;;;;;;;5093109;28;19961;-71
2022/04/09 04:40:24;;;;;;;;;;;;;;;;;;5093077;28;19919;-72
2022/04/09 04:42:50;;;;;;;;;;;;;;;;;;5093211;28;19930;-72
2022/04/09 04:45:16;;;;;;;;;;;;;;;;;;5091513;28;19916;-71
2022/04/09 04:47:42;;;;;;;;;;;;;;;;;;5093077;28;19966;-73
2022/04/09 04:50:08;;;;;;;;;;;;;;;;;;5093218;28;19908;-73
2022/04/09 04:52:34;;;;;;;;;;;;;;;;;;5092957;28;19939;-73
2022/04/09 04:54:59;;;;;;;;;;;;;;;;;;5093270;28;19909;-72
2022/04/09 04:57:25;;;;;;;;;;;;;;;;;;5091583;28;19927;-72
2022/04/09 04:59:51;;;;;;;;;;;;;;;;;;5093067;28;19915;-72
2022/04/09 05:02:17;;;;;;;;;;;;;;;;;;5092582;28;20415;-72
2022/04/09 05:04:43;;;;;;;;;;;;;;;;;;5091427;28;19916;-72
2022/04/09 05:07:09;;;;;;;;;;;;;;;;;;5091424;28;19934;-72
2022/04/09 05:09:35;;;;;;;;;;;;;;;;;;5092448;28;19926;-72
2022/04/09 05:12:01;;;;;;;;;;;;;;;;;;5092530;28;19916;-72
2022/04/09 05:14:27;;;;;;;;;;;;;;;;;;5091110;28;20041;-71
2022/04/09 05:16:53;;;;;;;;;;;;;;;;;;5092378;28;19979;-72
2022/04/09 05:19:19;;;;;;;;;;;;;;;;;;5092488;28;19916;-72
2022/04/09 05:21:47;;;;;;;;;;;;;;;;;;5091428;28;19998;-74
2022/04/09 05:24:13;;;;;;;;;;;;;;;;;;5092490;28;19924;-72
2022/04/09 05:26:39;;;;;;;;;;;;;;;;;;5090934;28;19912;-71
2022/04/09 05:29:05;;;;;;;;;;;;;;;;;;5092469;28;20419;-74
2022/04/09 05:31:31;;;;;;;;;;;;;;;;;;5090818;28;19970;-72
2022/04/09 05:33:57;;;;;;;;;;;;;;;;;;5090880;28;19912;-72
2022/04/09 05:36:23;;;;;;;;;;;;;;;;;;5092199;28;20348;-72
2022/04/09 05:38:50;;;;;;;;;;;;;;;;;;5090749;28;19908;-72
2022/04/09 05:41:15;;;;;;;;;;;;;;;;;;5090846;28;19912;-72
2022/04/09 05:43:41;;;;;;;;;;;;;;;;;;5092006;28;19923;-71
2022/04/09 05:46:07;;;;;;;;;;;;;;;;;;5091964;28;19920;-72
2022/04/09 05:48:33;;;;;;;;;;;;;;;;;;5092127;28;19908;-72
2022/04/09 05:50:59;;;;;;;;;;;;;;;;;;5092381;28;19912;-73
2022/04/09 05:53:25;;;;;;;;;;;;;;;;;;5091969;28;19913;-72
2022/04/09 05:55:51;;;;;;;;;;;;;;;;;;5092305;28;19951;-73
2022/04/09 05:58:17;;;;;;;;;;;;;;;;;;5091822;28;19919;-74
2022/04/09 06:00:43;;;;;;;;;;;;;;;;;;5091976;28;19912;-72
2022/04/09 06:03:09;;;;;;;;;;;;;;;;;;5090186;28;19928;-73
2022/04/09 06:05:34;;;;;;;;;;;;;;;;;;5090091;28;20217;-73
2022/04/09 06:08:00;;;;;;;;;;;;;;;;;;5091641;28;20341;-73
2022/04/09 06:10:26;;;;;;;;;;;;;;;;;;5090384;28;19999;-73
2022/04/09 06:12:52;;;;;;;;;;;;;;;;;;5090288;28;19912;-72
2022/04/09 06:15:18;;;;;;;;;;;;;;;;;;5091760;28;20117;-73
2022/04/09 06:17:44;;;;;;;;;;;;;;;;;;5091861;28;19969;-73
2022/04/09 06:20:10;;;;;;;;;;;;;;;;;;5089941;28;20291;-71
2022/04/09 06:22:36;;;;;;;;;;;;;;;;;;5090168;28;20276;-72
2022/04/09 06:25:02;;;;;;;;;;;;;;;;;;5091543;28;20331;-71
2022/04/09 06:27:28;;;;;;;;;;;;;;;;;;5091409;28;19919;-72
2022/04/09 06:29:54;;;;;;;;;;;;;;;;;;5091570;28;19998;-73
2022/04/09 06:32:20;;;;;;;;;;;;;;;;;;5091393;28;20385;-72
2022/04/09 06:34:46;;;;;;;;;;;;;;;;;;5095570;28;20014;-72
2022/04/09 06:37:12;;;;;;;;;;;;;;;;;;5095444;28;19912;-72
2022/04/09 06:39:38;;;;;;;;;;;;;;;;;;5095706;28;20334;-72
2022/04/09 06:42:03;;;;;;;;;;;;;;;;;;5094213;28;20280;-72
2022/04/09 06:44:29;;;;;;;;;;;;;;;;;;5095504;28;20322;-72
2022/04/09 06:46:55;;;;;;;;;;;;;;;;;;5095529;28;20375;-73
2022/04/09 06:49:21;;;;;;;;;;;;;;;;;;5095352;28;19965;-71
2022/04/09 06:51:48;;;;;;;;;;;;;;;;;;5095197;28;20344;-72
2022/04/09 06:54:14;;;;;;;;;;;;;;;;;;5095347;28;19952;-72
2022/04/09 06:56:40;;;;;;;;;;;;;;;;;;5095141;28;19959;-72
2022/04/09 06:59:06;;;;;;;;;;;;;;;;;;5095185;28;19912;-72
2022/04/09 07:01:31;;;;;;;;;;;;;;;;;;5094694;28;19955;-72
2022/04/09 07:03:57;;;;;;;;;;;;;;;;;;5094803;28;19973;-72
2022/04/09 07:06:23;;;;;;;;;;;;;;;;;;5094834;28;19921;-73
2022/04/09 07:08:49;;;;;;;;;;;;;;;;;;5093626;28;19975;-73
2022/04/09 07:11:15;;;;;;;;;;;;;;;;;;5095000;28;19913;-72
2022/04/09 07:13:41;;;;;;;;;;;;;;;;;;5093438;28;19916;-72
2022/04/09 07:16:07;;;;;;;;;;;;;;;;;;5094764;28;20003;-72
2022/04/09 07:18:33;;;;;;;;;;;;;;;;;;5094704;28;20264;-72
2022/04/09 07:20:59;;;;;;;;;;;;;;;;;;5095089;28;19919;-73
2022/04/09 07:23:25;;;;;;;;;;;;;;;;;;5094923;28;20318;-74
2022/04/09 07:25:50;;;;;;;;;;;;;;;;;;5094900;28;19967;-72
2022/04/09 07:28:16;;;;;;;;;;;;;;;;;;5094429;28;19912;-73
2022/04/09 07:30:43;;;;;;;;;;;;;;;;;;5094879;28;19916;-72
2022/04/09 07:33:09;;;;;;;;;;;;;;;;;;5094484;28;19912;-73
2022/04/09 07:35:35;;;;;;;;;;;;;;;;;;5094767;28;19912;-72
2022/04/09 07:38:01;;;;;;;;;;;;;;;;;;5094670;28;19916;-73
2022/04/09 07:40:30;;;;;;;;;;;;;;;;;;5093182;28;19919;-72
2022/04/09 07:42:57;;;;;;;;;;;;;;;;;;5093954;28;19920;-73
2022/04/09 07:45:23;;;;;;;;;;;;;;;;;;5093133;28;19974;-72
2022/04/09 07:47:48;;;;;;;;;;;;;;;;;;5093983;28;20359;-73
2022/04/09 07:50:14;;;;;;;;;;;;;;;;;;5094234;28;19916;-72
2022/04/09 07:52:42;;;;;;;;;;;;;;;;;;5093997;28;19927;-73
2022/04/09 07:55:08;;;;;;;;;;;;;;;;;;5092639;28;20048;-73
2022/04/09 07:57:34;;;;;;;;;;;;;;;;;;5092469;28;20355;-73
2022/04/09 08:00:00;;;;;;;;;;;;;;;;;;5093717;28;20283;-73
2022/04/09 08:02:26;;;;;;;;;;;;;;;;;;5093337;28;19927;-73
2022/04/09 08:04:52;;;;;;;;;;;;;;;;;;5093849;28;19923;-73
2022/04/09 08:07:18;;;;;;;;;;;;;;;;;;5093588;28;19912;-73
2022/04/09 08:09:44;;;;;;;;;;;;;;;;;;5093806;28;20363;-72
2022/04/09 08:12:12;;;;;;;;;;;;;;;;;;5093662;28;20375;-73
2022/04/09 08:14:38;;;;;;;;;;;;;;;;;;5093635;28;19912;-73
2022/04/09 08:17:04;;;;;;;;;;;;;;;;;;5093518;28;20356;-73
2022/04/09 08:19:30;;;;;;;;;;;;;;;;;;5092044;28;19912;-72
2022/04/09 08:21:58;;;;;;;;;;;;;;;;;;5093278;28;20410;-72
2022/04/09 08:24:24;;;;;;;;;;;;;;;;;;5093516;28;19916;-72
2022/04/09 08:26:50;;;;;;;;;;;;;;;;;;5091716;28;20364;-72
2022/04/09 08:29:19;;;;;;;;;;;;;;;;;;5093303;28;20291;-72
2022/04/09 08:31:47;;;;;;;;;;;;;;;;;;5093199;28;19912;-73
2022/04/09 08:34:13;;;;;;;;;;;;;;;;;;5092026;28;19939;-73
2022/04/09 08:36:39;;;;;;;;;;;;;;;;;;5091667;28;20372;-73
2022/04/09 08:39:05;;;;;;;;;;;;;;;;;;5093262;28;19961;-73
2022/04/09 08:41:31;;;;;;;;;;;;;;;;;;5092982;28;20008;-74
2022/04/09 08:43:57;;;;;;;;;;;;;;;;;;5093007;28;20379;-73
2022/04/09 08:46:22;;;;;;;;;;;;;;;;;;5091753;28;20003;-73
2022/04/09 08:48:49;;;;;;;;;;;;;;;;;;5092823;28;19951;-72
2022/04/09 08:51:15;;;;;;;;;;;;;;;;;;5091842;28;20374;-72
2022/04/09 08:53:41;;;;;;;;;;;;;;;;;;5092836;28;19912;-72
2022/04/09 08:56:07;;;;;;;;;;;;;;;;;;5092639;28;19920;-73
2022/04/09 08:58:33;;;;;;;;;;;;;;;;;;5092841;28;19953;-73
2022/04/09 09:00:59;;;;;;;;;;;;;;;;;;5092635;28;20314;-73
2022/04/09 09:03:25;;;;;;;;;;;;;;;;;;5091245;28;19924;-73
2022/04/09 09:05:52;;;;;;;;;;;;;;;;;;5092961;28;19920;-73
2022/04/09 09:08:18;;;;;;;;;;;;;;;;;;5092408;28;19916;-73
2022/04/09 09:10:44;;;;;;;;;;;;;;;;;;5092977;28;19920;-73
2022/04/09 09:13:10;;;;;;;;;;;;;;;;;;5091128;28;19912;-73
2022/04/09 09:15:36;;;;;;;;;;;;;;;;;;5091266;28;20370;-72
2022/04/09 09:18:02;;;;;;;;;;;;;;;;;;5091065;28;20333;-72
2022/04/09 09:20:28;;;;;;;;;;;;;;;;;;5091144;28;19912;-73
2022/04/09 09:22:53;;;;;;;;;;;;;;;;;;5090678;28;19938;-73
2022/04/09 09:25:19;;;;;;;;;;;;;;;;;;5092535;28;19919;-74
2022/04/09 09:27:45;;;;;;;;;;;;;;;;;;5092002;28;19977;-73
2022/04/09 09:30:11;;;;;;;;;;;;;;;;;;5092421;28;20374;-73
2022/04/09 09:32:41;;;;;;;;;;;;;;;;;;5092040;28;19955;-73
2022/04/09 09:35:07;;;;;;;;;;;;;;;;;;5090628;28;19912;-73
2022/04/09 09:37:34;;;;;;;;;;;;;;;;;;5092254;28;19912;-73
2022/04/09 09:40:01;;;;;;;;;;;;;;;;;;5090699;28;19916;-73
2022/04/09 09:42:27;;;;;;;;;;;;;;;;;;5091946;28;19916;-74
2022/04/09 09:44:54;;;;;;;;;;;;;;;;;;5092199;28;19952;-73
2022/04/09 09:47:20;;;;;;;;;;;;;;;;;;5092135;28;20429;-73
2022/04/09 09:49:53;;;;;;;;;;;;;;;;;;5092011;28;20317;-73
2022/04/09 09:52:22;;;;;;;;;;;;;;;;;;5090371;28;19919;-73
2022/04/09 09:54:50;;;;;;;;;;;;;;;;;;5090363;28;19961;-73
2022/04/09 09:57:35;;;;;;;;;;;;;;;;;;5092398;28;20022;-73
2022/04/09 10:00:04;;;;;;;;;;;;;;;;;;5091900;28;19949;-73
2022/04/09 10:02:31;;;;;;;;;;;;;;;;;;5090029;28;19934;-73
2022/04/09 10:05:00;;;;;;;;;;;;;;;;;;5091897;28;19969;-72
2022/04/09 10:07:26;;;;;;;;;;;;;;;;;;5089691;28;20360;-73
2022/04/09 10:09:53;;;;;;;;;;;;;;;;;;5091729;28;19922;-73
2022/04/09 10:12:19;;;;;;;;;;;;;;;;;;5090281;28;19912;-73
2022/04/09 10:14:45;;;;;;;;;;;;;;;;;;5091508;28;19961;-73
2022/04/09 10:17:12;;;;;;;;;;;;;;;;;;5089987;28;20007;-73
2022/04/09 10:19:38;;;;;;;;;;;;;;;;;;5091467;28;19919;-72
2022/04/09 10:22:04;;;;;;;;;;;;;;;;;;5091312;28;19920;-73
2022/04/09 10:24:30;;;;;;;;;;;;;;;;;;5091290;28;20344;-73
2022/04/09 10:26:58;;;;;;;;;;;;;;;;;;5091172;28;19912;-73
2022/04/09 10:29:24;;;;;;;;;;;;;;;;;;5091118;28;19966;-73
2022/04/09 10:31:51;;;;;;;;;;;;;;;;;;5091401;28;19912;-72
2022/04/09 10:34:17;;;;;;;;;;;;;;;;;;5091331;28;19916;-73
2022/04/09 10:36:43;;;;;;;;;;;;;;;;;;5089758;28;19920;-73
2022/04/09 10:39:09;;;;;;;;;;;;;;;;;;5089758;28;19965;-73
2022/04/09 10:41:35;;;;;;;;;;;;;;;;;;5091192;28;19920;-72
2022/04/09 10:44:01;;;;;;;;;;;;;;;;;;5089710;28;19913;-72
2022/04/09 10:46:27;;;;;;;;;;;;;;;;;;5089841;28;19947;-73
2022/04/09 10:48:53;;;;;;;;;;;;;;;;;;5091406;28;19908;-73
2022/04/09 10:51:19;;;;;;;;;;;;;;;;;;5091291;28;20376;-73
2022/04/09 10:53:44;;;;;;;;;;;;;;;;;;5089735;28;20056;-73
2022/04/09 10:56:11;;;;;;;;;;;;;;;;;;5089620;28;20295;-72
2022/04/09 10:58:37;;;;;;;;;;;;;;;;;;5091106;28;19915;-73
2022/04/09 11:01:03;;;;;;;;;;;;;;;;;;5090964;28;19912;-72
2022/04/09 11:03:29;;;;;;;;;;;;;;;;;;5089555;28;19920;-73
2022/04/09 11:05:55;;;;;;;;;;;;;;;;;;5090784;28;19924;-73
2022/04/09 11:08:21;;;;;;;;;;;;;;;;;;5091011;28;20413;-73
2022/04/09 11:10:47;;;;;;;;;;;;;;;;;;5091255;28;19923;-73
2022/04/09 11:13:13;;;;;;;;;;;;;;;;;;5091052;28;19958;-72
2022/04/09 11:15:39;;;;;;;;;;;;;;;;;;5091367;28;20344;-72
2022/04/09 11:18:05;;;;;;;;;;;;;;;;;;5091750;28;20011;-73
2022/04/09 11:20:31;;;;;;;;;;;;;;;;;;5094424;28;19959;-73
2022/04/09 11:22:58;;;;;;;;;;;;;;;;;;5093315;28;19926;-73
2022/04/09 11:25:26;;;;;;;;;;;;;;;;;;5094772;28;19919;-72
2022/04/09 11:27:52;;;;;;;;;;;;;;;;;;5094398;28;19912;-73
2022/04/09 11:30:18;;;;;;;;;;;;;;;;;;5094648;28;19916;-73
2022/04/09 11:32:44;;;;;;;;;;;;;;;;;;5093032;28;19912;-72
2022/04/09 11:35:11;;;;;;;;;;;;;;;;;;5094195;28;20292;-74
2022/04/09 11:37:36;;;;;;;;;;;;;;;;;;5094386;28;19916;-73
2022/04/09 11:40:02;;;;;;;;;;;;;;;;;;5094673;28;19916;-73
2022/04/09 11:42:28;;;;;;;;;;;;;;;;;;5094359;28;20322;-73
2022/04/09 11:44:54;;;;;;;;;;;;;;;;;;5094461;28;20252;-73
2022/04/09 11:47:20;;;;;;;;;;;;;;;;;;5094064;28;19920;-74
2022/04/09 11:49:47;;;;;;;;;;;;;;;;;;5094504;28;19923;-73
2022/04/09 11:52:13;;;;;;;;;;;;;;;;;;5094045;28;19916;-73
2022/04/09 11:54:39;;;;;;;;;;;;;;;;;;5092795;28;19923;-73
2022/04/09 11:57:05;;;;;;;;;;;;;;;;;;5093982;28;19935;-73
2022/04/09 11:59:31;;;;;;;;;;;;;;;;;;5092647;28;19916;-72
2022/04/09 12:01:57;;;;;;;;;;;;;;;;;;5094113;28;19965;-72
2022/04/09 12:04:23;;;;;;;;;;;;;;;;;;5092296;28;20420;-72
2022/04/09 12:06:49;;;;;;;;;;;;;;;;;;5092174;28;19912;-72
2022/04/09 12:09:15;;;;;;;;;;;;;;;;;;5093978;28;20634;-72
2022/04/09 12:11:41;;;;;;;;;;;;;;;;;;5092354;28;19920;-72
2022/04/09 12:14:07;;;;;;;;;;;;;;;;;;5092234;28;20322;-72
2022/04/09 12:16:33;;;;;;;;;;;;;;;;;;5092133;28;20351;-72
2022/04/09 12:18:59;;;;;;;;;;;;;;;;;;5093893;28;19912;-72
2022/04/09 12:21:25;;;;;;;;;;;;;;;;;;5093358;28;20420;-72
2022/04/09 12:23:51;;;;;;;;;;;;;;;;;;5093511;28;20357;-72
2022/04/09 12:26:17;;;;;;;;;;;;;;;;;;5093338;28;19916;-72
2022/04/09 12:28:43;;;;;;;;;;;;;;;;;;5091964;28;19909;-73
2022/04/09 12:31:09;;;;;;;;;;;;;;;;;;5091324;28;20374;-72
2022/04/09 12:33:34;;;;;;;;;;;;;;;;;;5092129;28;19912;-72
2022/04/09 12:36:00;;;;;;;;;;;;;;;;;;5093073;28;20367;-73
2022/04/09 12:38:26;;;;;;;;;;;;;;;;;;5093538;28;19911;-73
2022/04/09 12:40:52;;;;;;;;;;;;;;;;;;5092961;28;19916;-73
2022/04/09 12:43:18;;;;;;;;;;;;;;;;;;5091905;28;20326;-73
2022/04/09 12:45:44;;;;;;;;;;;;;;;;;;5091523;28;19949;-72
2022/04/09 12:48:13;;;;;;;;;;;;;;;;;;5093151;28;19918;-73
2022/04/09 12:50:40;;;;;;;;;;;;;;;;;;5093439;28;19951;-73
2022/04/09 12:53:07;;;;;;;;;;;;;;;;;;5092889;28;19912;-73
2022/04/09 12:55:33;;;;;;;;;;;;;;;;;;5091738;28;20288;-73
2022/04/09 12:57:58;;;;;;;;;;;;;;;;;;5091573;28;19998;-73
2022/04/09 13:00:24;;;;;;;;;;;;;;;;;;5092762;28;20014;-73
2022/04/09 13:02:50;;;;;;;;;;;;;;;;;;5091102;28;19988;-72
2022/04/09 13:05:16;;;;;;;;;;;;;;;;;;5091440;28;19916;-73
2022/04/09 13:07:42;;;;;;;;;;;;;;;;;;5091255;28;19959;-73
2022/04/09 13:10:08;;;;;;;;;;;;;;;;;;5093026;28;19954;-72
2022/04/09 13:12:34;;;;;;;;;;;;;;;;;;5092385;28;20372;-73
2022/04/09 13:15:00;;;;;;;;;;;;;;;;;;5092979;28;19919;-72
2022/04/09 13:17:26;;;;;;;;;;;;;;;;;;5091201;28;20296;-73
2022/04/09 13:19:52;;;;;;;;;;;;;;;;;;5092845;28;19912;-72
2022/04/09 13:22:18;;;;;;;;;;;;;;;;;;5092711;28;19959;-72
2022/04/09 13:24:44;;;;;;;;;;;;;;;;;;5092759;28;20000;-72
2022/04/09 13:27:10;;;;;;;;;;;;;;;;;;5091125;28;19915;-72
2022/04/09 13:29:36;;;;;;;;;;;;;;;;;;5092330;28;19965;-72
2022/04/09 13:32:02;;;;;;;;;;;;;;;;;;5092218;28;19972;-72
2022/04/09 13:34:28;;;;;;;;;;;;;;;;;;5092203;28;20015;-73
2022/04/09 13:36:54;;;;;;;;;;;;;;;;;;5090594;28;19927;-72
2022/04/09 13:39:20;;;;;;;;;;;;;;;;;;5090889;28;20355;-72
2022/04/09 13:41:46;;;;;;;;;;;;;;;;;;5089765;28;19962;-73
2022/04/09 13:44:11;;;;;;;;;;;;;;;;;;5090628;28;20290;-73
2022/04/09 13:46:37;;;;;;;;;;;;;;;;;;5090556;28;20002;-73
2022/04/09 13:49:03;;;;;;;;;;;;;;;;;;5092077;28;19912;-72
2022/04/09 13:51:29;;;;;;;;;;;;;;;;;;5090783;28;19913;-72
2022/04/09 13:53:56;;;;;;;;;;;;;;;;;;5090508;28;20077;-72
2022/04/09 13:56:22;;;;;;;;;;;;;;;;;;5090560;28;19912;-72
2022/04/09 13:58:48;;;;;;;;;;;;;;;;;;5091792;28;19908;-72
2022/04/09 14:01:14;;;;;;;;;;;;;;;;;;5091615;28;19965;-72
2022/04/09 14:03:40;;;;;;;;;;;;;;;;;;5089900;28;19920;-72
2022/04/09 14:06:06;;;;;;;;;;;;;;;;;;5090077;28;20035;-72
2022/04/09 14:08:32;;;;;;;;;;;;;;;;;;5090317;28;19912;-73
2022/04/09 14:11:00;;;;;;;;;;;;;;;;;;5091579;28;19942;-73
2022/04/09 14:13:26;;;;;;;;;;;;;;;;;;5091918;28;19920;-73
2022/04/09 14:15:52;;;;;;;;;;;;;;;;;;5091464;28;19919;-73
2022/04/09 14:18:17;;;;;;;;;;;;;;;;;;5091366;28;19916;-72
2022/04/09 14:20:43;;;;;;;;;;;;;;;;;;5091887;28;20276;-72
2022/04/09 14:23:09;;;;;;;;;;;;;;;;;;5091307;28;20291;-72
2022/04/09 14:25:35;;;;;;;;;;;;;;;;;;5091834;28;19966;-72
2022/04/09 14:28:03;;;;;;;;;;;;;;;;;;5089940;28;19920;-72
2022/04/09 14:30:29;;;;;;;;;;;;;;;;;;5090092;28;19914;-73
2022/04/09 14:32:55;;;;;;;;;;;;;;;;;;5091645;28;19920;-72
2022/04/09 14:35:27;;;;;;;;;;;;;;;;;;5091625;28;19935;-73
2022/04/09 14:37:53;;;;;;;;;;;;;;;;;;5090100;28;19916;-72
2022/04/09 14:40:19;;;;;;;;;;;;;;;;;;5091192;28;19946;-72
2022/04/09 14:42:44;;;;;;;;;;;;;;;;;;5091225;28;19962;-72
2022/04/09 14:45:15;;;;;;;;;;;;;;;;;;5089818;28;20403;-73
2022/04/09 14:47:40;;;;;;;;;;;;;;;;;;5091164;28;19951;-73
2022/04/09 14:50:06;;;;;;;;;;;;;;;;;;5091611;28;19955;-73
2022/04/09 14:52:32;;;;;;;;;;;;;;;;;;5090035;28;19916;-72
2022/04/09 14:54:58;;;;;;;;;;;;;;;;;;5093529;28;20284;-73
2022/04/09 14:57:26;;;;;;;;;;;;;;;;;;5095144;28;20101;-71
2022/04/09 14:59:52;;;;;;;;;;;;;;;;;;5095374;28;19912;-74
2022/04/09 15:02:18;;;;;;;;;;;;;;;;;;5094670;28;20257;-74
2022/04/09 15:04:44;;;;;;;;;;;;;;;;;;5093631;28;19920;-73
2022/04/09 15:07:11;;;;;;;;;;;;;;;;;;5095027;28;19923;-73
2022/04/09 15:09:39;;;;;;;;;;;;;;;;;;5095091;28;19916;-72
2022/04/09 15:12:09;;;;;;;;;;;;;;;;;;5095177;28;20379;-72
2022/04/09 15:14:35;;;;;;;;;;;;;;;;;;5093453;28;19916;-73
2022/04/09 15:17:01;;;;;;;;;;;;;;;;;;5094788;28;20011;-73
2022/04/09 15:19:27;;;;;;;;;;;;;;;;;;5094649;28;19954;-73
2022/04/09 15:21:53;;;;;;;;;;;;;;;;;;5093375;28;19912;-73
2022/04/09 15:24:19;;;;;;;;;;;;;;;;;;5094691;28;20330;-73
2022/04/09 15:26:45;;;;;;;;;;;;;;;;;;5094613;28;19935;-74
2022/04/09 15:29:11;;;;;;;;;;;;;;;;;;5094841;28;20014;-73
2022/04/09 15:31:37;;;;;;;;;;;;;;;;;;5093218;28;19916;-73
2022/04/09 15:34:03;;;;;;;;;;;;;;;;;;5094517;28;19912;-73
2022/04/09 15:36:29;;;;;;;;;;;;;;;;;;5094429;28;20362;-73
2022/04/09 15:38:55;;;;;;;;;;;;;;;;;;5094402;28;19908;-72
2022/04/09 15:41:21;;;;;;;;;;;;;;;;;;5094389;28;19970;-72
2022/04/09 15:43:46;;;;;;;;;;;;;;;;;;5094393;28;19914;-72
2022/04/09 15:46:12;;;;;;;;;;;;;;;;;;5094257;28;19916;-72
2022/04/09 15:48:38;;;;;;;;;;;;;;;;;;5094120;28;19908;-74
2022/04/09 15:51:05;;;;;;;;;;;;;;;;;;5094214;28;20007;-72
2022/04/09 15:53:30;;;;;;;;;;;;;;;;;;5092822;28;19923;-72
2022/04/09 15:55:56;;;;;;;;;;;;;;;;;;5092980;28;19912;-73
2022/04/09 15:58:22;;;;;;;;;;;;;;;;;;5092874;28;20407;-72
2022/04/09 16:00:49;;;;;;;;;;;;;;;;;;5092858;28;20004;-72
2022/04/09 16:03:15;;;;;;;;;;;;;;;;;;5094138;28;20375;-73
2022/04/09 16:05:41;;;;;;;;;;;;;;;;;;5092720;28;20074;-72
2022/04/09 16:08:07;;;;;;;;;;;;;;;;;;5092734;28;20367;-72
2022/04/09 16:10:32;;;;;;;;;;;;;;;;;;5092607;28;19912;-72
2022/04/09 16:12:58;;;;;;;;;;;;;;;;;;5093962;28;20321;-72
2022/04/09 16:15:25;;;;;;;;;;;;;;;;;;5094089;28;20013;-70
2022/04/09 16:17:51;;;;;;;;;;;;;;;;;;5092387;28;19916;-71
2022/04/09 16:20:17;;;;;;;;;;;;;;;;;;5093500;28;19999;-72
2022/04/09 16:22:43;;;;;;;;;;;;;;;;;;5092392;28;19912;-71
2022/04/09 16:25:09;;;;;;;;;;;;;;;;;;5092307;28;19916;-73
2022/04/09 16:27:35;;;;;;;;;;;;;;;;;;5093477;28;20279;-72
2022/04/09 16:30:01;;;;;;;;;;;;;;;;;;5092281;28;19920;-72
2022/04/09 16:32:28;;;;;;;;;;;;;;;;;;5092003;28;19912;-72
2022/04/09 16:34:54;;;;;;;;;;;;;;;;;;5091907;28;19912;-73
2022/04/09 16:37:20;;;;;;;;;;;;;;;;;;5093250;28;20420;-72